createdAt,value
2022-09-22T00:00:58.847Z,6.45
2022-09-22T00:03:26.168Z,4.50
2022-09-22T00:06:01.249Z,3.80
2022-09-22T00:08:30.872Z,4.50
2022-09-22T00:11:00.326Z,5.32
2022-09-22T00:13:27.005Z,6.05
2022-09-22T00:15:53.639Z,7.32
2022-09-22T00:18:20.271Z,7.38
2022-09-22T00:20:46.841Z,7.30
2022-09-22T00:23:13.496Z,5.28
2022-09-22T00:25:41.094Z,4.63
2022-09-22T00:28:07.703Z,4.15
2022-09-22T00:30:34.300Z,4.05
2022-09-22T00:33:00.890Z,5.82
2022-09-22T00:35:27.503Z,6.00
2022-09-22T00:37:54.094Z,5.75
2022-09-22T00:40:20.749Z,6.72
2022-09-22T00:42:47.342Z,5.75
2022-09-22T00:45:13.923Z,6.35
2022-09-22T00:47:42.678Z,5.93
2022-09-22T00:53:11.877Z,6.30
2022-09-22T00:55:42.631Z,5.40
2022-09-22T00:58:11.717Z,6.20
2022-09-22T01:00:38.505Z,6.57
2022-09-22T01:03:06.482Z,6.60
2022-09-22T01:05:33.801Z,7.95
2022-09-22T01:08:00.925Z,5.65
2022-09-22T01:10:27.675Z,5.22
2022-09-22T01:13:32.049Z,5.10
2022-09-22T01:16:15.283Z,4.20
2022-09-22T01:19:09.145Z,4.03
2022-09-22T01:21:42.994Z,4.38
2022-09-22T01:24:25.777Z,4.65
2022-09-22T01:27:32.372Z,4.45
2022-09-22T01:30:19.926Z,4.55
2022-09-22T01:33:26.653Z,4.30
2022-09-22T01:36:02.358Z,4.38
2022-09-22T01:38:33.546Z,4.38
2022-09-22T01:41:05.737Z,4.95
2022-09-22T01:43:50.840Z,4.40
2022-09-22T01:46:25.712Z,4.95
2022-09-22T01:48:52.454Z,3.95
2022-09-22T01:51:22.761Z,5.22
2022-09-22T01:53:54.397Z,3.90
2022-09-22T01:56:21.002Z,5.68
2022-09-22T01:58:50.393Z,4.88
2022-09-22T02:01:19.521Z,4.93
2022-09-22T02:03:52.120Z,4.88
2022-09-22T02:06:24.821Z,4.32
2022-09-22T02:11:21.963Z,4.45
2022-09-22T02:13:48.683Z,5.28
2022-09-22T02:16:23.736Z,4.68
2022-09-22T02:18:57.027Z,5.85
2022-09-22T02:21:25.101Z,4.88
2022-09-22T02:23:51.741Z,4.95
2022-09-22T02:26:23.637Z,5.95
2022-09-22T02:28:51.953Z,7.45
2022-09-22T02:31:20.325Z,5.65
2022-09-22T02:33:47.309Z,7.72
2022-09-22T02:36:53.788Z,5.25
2022-09-22T02:39:45.028Z,6.90
2022-09-22T02:42:30.510Z,6.50
2022-09-22T02:45:33.333Z,5.53
2022-09-22T02:48:04.597Z,5.00
2022-09-22T02:50:31.203Z,4.95
2022-09-22T02:53:01.469Z,4.60
2022-09-22T02:55:28.095Z,4.80
2022-09-22T02:57:54.712Z,4.90
2022-09-22T03:00:22.401Z,4.88
2022-09-22T03:02:49.051Z,5.20
2022-09-22T03:05:15.730Z,5.20
2022-09-22T03:07:42.364Z,4.97
2022-09-22T03:10:09.510Z,5.20
2022-09-22T03:12:36.256Z,6.20
2022-09-22T03:15:02.885Z,10.02
2022-09-22T03:17:32.051Z,10.23
2022-09-22T03:19:58.649Z,9.40
2022-09-22T03:22:25.249Z,8.35
2022-09-22T03:24:51.879Z,8.13
2022-09-22T03:27:18.848Z,10.05
2022-09-22T03:29:45.591Z,11.15
2022-09-22T03:32:12.266Z,10.82
2022-09-22T03:34:38.850Z,10.32
2022-09-22T03:37:05.441Z,13.32
2022-09-22T03:39:32.224Z,9.50
2022-09-22T03:41:58.789Z,8.88
2022-09-22T03:44:26.489Z,8.32
2022-09-22T03:46:53.284Z,6.10
2022-09-22T03:49:19.993Z,7.50
2022-09-22T03:51:46.578Z,5.35
2022-09-22T03:54:13.205Z,5.45
2022-09-22T03:56:39.942Z,6.28
2022-09-22T03:59:06.544Z,5.88
2022-09-22T04:01:33.901Z,5.55
2022-09-22T04:04:00.709Z,5.85
2022-09-22T04:06:27.290Z,6.80
2022-09-22T04:08:53.889Z,5.47
2022-09-22T04:11:20.823Z,6.35
2022-09-22T04:13:47.475Z,5.25
2022-09-22T04:16:14.174Z,6.85
2022-09-22T04:18:40.842Z,6.50
2022-09-22T04:21:07.978Z,6.15
2022-09-22T04:23:34.662Z,6.00
2022-09-22T04:26:01.962Z,5.82
2022-09-22T04:28:28.929Z,5.53
2022-09-22T04:30:55.588Z,5.93
2022-09-22T04:33:22.308Z,5.75
2022-09-22T04:35:50.256Z,6.03
2022-09-22T04:38:34.419Z,6.30
2022-09-22T04:41:04.713Z,6.32
2022-09-22T04:43:31.324Z,5.20
2022-09-22T04:45:58.001Z,5.90
2022-09-22T04:48:24.721Z,6.53
2022-09-22T04:50:51.489Z,6.45
2022-09-22T04:53:18.115Z,7.00
2022-09-22T04:55:45.063Z,5.38
2022-09-22T04:58:11.718Z,6.25
2022-09-22T05:00:38.504Z,6.55
2022-09-22T05:03:09.667Z,5.70
2022-09-22T05:05:36.463Z,6.95
2022-09-22T05:08:03.041Z,6.95
2022-09-22T05:10:32.198Z,7.13
2022-09-22T05:12:59.006Z,6.55
2022-09-22T05:15:25.951Z,7.15
2022-09-22T05:17:53.333Z,7.20
2022-09-22T05:20:20.518Z,7.93
2022-09-22T05:22:47.460Z,9.93
2022-09-22T05:25:17.029Z,10.27
2022-09-22T05:27:46.494Z,9.27
2022-09-22T05:30:13.422Z,10.20
2022-09-22T05:32:44.008Z,10.32
2022-09-22T05:35:11.904Z,10.50
2022-09-22T05:37:38.556Z,11.00
2022-09-22T05:40:07.136Z,11.48
2022-09-22T05:42:34.276Z,10.25
2022-09-22T05:45:00.868Z,8.85
2022-09-22T05:47:27.437Z,9.93
2022-09-22T05:49:54.562Z,9.70
2022-09-22T05:52:21.218Z,7.43
2022-09-22T05:54:47.817Z,8.07
2022-09-22T05:57:14.841Z,8.43
2022-09-22T05:59:41.446Z,6.78
2022-09-22T06:02:25.247Z,7.40
2022-09-22T06:04:52.913Z,6.63
2022-09-22T06:07:20.582Z,6.13
2022-09-22T06:09:47.890Z,6.53
2022-09-22T06:12:14.750Z,6.55
2022-09-22T06:14:41.410Z,6.75
2022-09-22T06:17:11.626Z,5.93
2022-09-22T06:19:39.001Z,6.45
2022-09-22T06:22:05.904Z,5.78
2022-09-22T06:24:32.683Z,5.43
2022-09-22T06:26:59.557Z,5.38
2022-09-22T06:29:26.792Z,6.30
2022-09-22T06:31:53.703Z,4.97
2022-09-22T06:34:20.414Z,5.40
2022-09-22T06:36:47.026Z,6.45
2022-09-22T06:39:16.738Z,5.40
2022-09-22T06:41:44.693Z,5.07
2022-09-22T06:44:12.911Z,5.43
2022-09-22T06:46:39.607Z,5.07
2022-09-22T06:49:06.775Z,5.20
2022-09-22T06:51:35.234Z,6.05
2022-09-22T06:54:04.166Z,6.03
2022-09-22T06:56:36.834Z,6.07
2022-09-22T06:59:10.184Z,6.70
2022-09-22T07:01:37.707Z,6.07
2022-09-22T07:04:04.703Z,6.70
2022-09-22T07:06:31.597Z,6.45
2022-09-22T07:08:58.312Z,6.18
2022-09-22T07:11:25.069Z,5.47
2022-09-22T07:13:53.270Z,5.50
2022-09-22T07:16:21.300Z,6.20
2022-09-22T07:18:52.363Z,5.25
2022-09-22T07:21:20.994Z,5.97
2022-09-22T07:23:49.866Z,5.32
2022-09-22T07:26:18.495Z,5.97
2022-09-22T07:28:48.514Z,5.63
2022-09-22T07:31:15.327Z,4.22
2022-09-22T07:33:43.233Z,4.15
2022-09-22T07:36:12.962Z,3.35
2022-09-22T07:38:40.230Z,3.33
2022-09-22T07:41:10.585Z,3.85
2022-09-22T07:43:37.672Z,2.88
2022-09-22T07:46:04.571Z,3.35
2022-09-22T07:48:42.419Z,3.10
2022-09-22T07:51:19.793Z,4.60
2022-09-22T07:53:48.174Z,4.00
2022-09-22T07:56:16.644Z,3.35
2022-09-22T07:58:51.577Z,3.70
2022-09-22T08:01:19.681Z,3.50
2022-09-22T08:03:47.271Z,3.30
2022-09-22T08:06:16.118Z,3.38
2022-09-22T08:08:47.543Z,4.47
2022-09-22T08:11:15.788Z,3.90
2022-09-22T08:13:43.693Z,3.13
2022-09-22T08:16:11.805Z,3.20
2022-09-22T08:18:39.641Z,2.85
2022-09-22T08:21:07.858Z,2.38
2022-09-22T08:23:34.552Z,2.13
2022-09-22T08:26:08.748Z,2.08
2022-09-22T08:28:35.547Z,2.03
2022-09-22T08:31:02.528Z,1.65
2022-09-22T08:33:31.305Z,2.42
2022-09-22T08:35:59.228Z,2.25
2022-09-22T08:38:28.132Z,2.50
2022-09-22T08:41:15.178Z,2.80
2022-09-22T08:43:55.105Z,2.53
2022-09-22T08:46:44.130Z,2.97
2022-09-22T08:50:03.425Z,2.97
2022-09-22T08:52:39.384Z,3.55
2022-09-22T08:55:12.901Z,4.05
2022-09-22T08:58:02.836Z,2.45
2022-09-22T09:00:32.570Z,3.25
2022-09-22T09:03:38.969Z,2.70
2022-09-22T09:06:30.932Z,1.98
2022-09-22T09:09:37.522Z,6.10
2022-09-22T09:12:26.850Z,2.20
2022-09-22T09:15:17.369Z,2.03
2022-09-22T09:17:45.651Z,2.00
2022-09-22T09:22:55.652Z,2.17
2022-09-22T09:25:31.757Z,1.60
2022-09-22T09:28:00.287Z,1.40
2022-09-22T09:30:31.964Z,1.38
2022-09-22T09:33:00.611Z,2.20
2022-09-22T09:35:44.105Z,2.42
2022-09-22T09:38:14.014Z,3.22
2022-09-22T09:40:40.813Z,2.88
2022-09-22T09:43:07.771Z,2.75
2022-09-22T09:45:59.183Z,2.10
2022-09-22T09:49:03.924Z,2.88
2022-09-22T09:51:31.858Z,2.88
2022-09-22T09:54:00.897Z,2.70
2022-09-22T09:56:29.255Z,3.42
2022-09-22T09:59:21.449Z,3.03
2022-09-22T10:01:48.911Z,2.67
2022-09-22T10:04:37.722Z,2.70
2022-09-22T10:07:14.060Z,4.80
2022-09-22T10:09:41.154Z,2.35
2022-09-22T10:12:24.354Z,2.63
2022-09-22T10:14:52.585Z,1.80
2022-09-22T10:17:20.801Z,2.03
2022-09-22T10:19:47.423Z,2.45
2022-09-22T10:22:17.498Z,6.07
2022-09-22T10:25:04.348Z,1.77
2022-09-22T10:27:31.608Z,3.30
2022-09-22T10:30:21.760Z,3.95
2022-09-22T10:33:05.468Z,2.65
2022-09-22T10:35:33.633Z,1.50
2022-09-22T10:38:10.302Z,2.17
2022-09-22T10:40:39.188Z,4.63
2022-09-22T10:43:07.196Z,1.65
2022-09-22T10:45:42.990Z,1.50
2022-09-22T10:51:15.888Z,1.50
2022-09-22T10:53:53.017Z,2.35
2022-09-22T10:56:42.660Z,3.05
2022-09-22T11:02:18.321Z,3.42
2022-09-22T11:05:44.750Z,2.70
2022-09-22T11:08:33.746Z,2.35
2022-09-22T11:14:27.373Z,2.20
2022-09-22T11:17:08.184Z,2.60
2022-09-22T11:28:28.141Z,2.55
2022-09-22T11:30:57.431Z,1.63
2022-09-22T11:33:47.486Z,2.80
2022-09-22T11:36:33.896Z,3.05
2022-09-22T11:39:21.134Z,3.97
2022-09-22T11:44:43.792Z,1.85
2022-09-22T11:47:34.562Z,1.42
2022-09-22T11:50:26.714Z,4.00
2022-09-22T11:53:16.530Z,2.00
2022-09-22T11:56:06.281Z,1.33
2022-09-22T11:58:35.723Z,2.10
2022-09-22T12:01:12.303Z,3.75
2022-09-22T12:03:43.523Z,3.78
2022-09-22T12:06:12.875Z,3.75
2022-09-22T12:08:46.198Z,3.38
2022-09-22T12:11:14.134Z,2.28
2022-09-22T12:13:42.901Z,2.88
2022-09-22T12:16:33.117Z,1.98
2022-09-22T12:19:06.650Z,2.75
2022-09-22T12:21:56.744Z,1.70
2022-09-22T12:24:24.027Z,1.70
2022-09-22T12:26:51.050Z,2.72
2022-09-22T12:29:23.572Z,1.75
2022-09-22T12:31:52.004Z,2.78
2022-09-22T12:34:21.692Z,3.20
2022-09-22T12:36:48.900Z,28.95
2022-09-22T12:39:18.825Z,2.67
2022-09-22T12:41:48.237Z,3.45
2022-09-22T12:44:17.766Z,2.10
2022-09-22T12:46:44.563Z,2.05
2022-09-22T12:49:14.864Z,2.10
2022-09-22T12:51:41.743Z,2.97
2022-09-22T12:57:02.406Z,2.65
2022-09-22T13:07:37.734Z,3.22
2022-09-22T13:21:23.882Z,2.97
2022-09-22T13:26:34.407Z,3.63
2022-09-22T13:29:15.584Z,4.50
2022-09-22T13:31:48.381Z,2.92
2022-09-22T13:34:20.521Z,2.40
2022-09-22T13:36:47.270Z,2.13
2022-09-22T13:39:16.762Z,1.88
2022-09-22T13:41:46.818Z,2.00
2022-09-22T13:44:13.579Z,2.85
2022-09-22T13:46:45.396Z,3.38
2022-09-22T13:49:14.148Z,4.72
2022-09-22T13:51:40.807Z,3.65
2022-09-22T13:54:09.425Z,2.33
2022-09-22T13:56:36.349Z,2.13
2022-09-22T13:59:02.988Z,1.95
2022-09-22T14:01:30.040Z,2.95
2022-09-22T14:03:56.894Z,1.92
2022-09-22T14:06:25.896Z,2.83
2022-09-22T14:08:52.880Z,2.70
2022-09-22T14:13:59.014Z,3.65
2022-09-22T14:16:47.648Z,2.83
2022-09-22T14:19:20.007Z,3.53
2022-09-22T14:21:55.643Z,3.97
2022-09-22T14:24:22.257Z,3.53
2022-09-22T14:26:50.167Z,2.63
2022-09-22T14:29:19.037Z,2.25
2022-09-22T14:31:48.498Z,3.45
2022-09-22T14:34:25.293Z,2.53
2022-09-22T14:36:52.018Z,2.25
2022-09-22T14:39:22.744Z,1.70
2022-09-22T14:41:51.619Z,2.13
2022-09-22T14:44:46.354Z,3.35
2022-09-22T14:50:08.576Z,3.50
2022-09-22T14:52:56.093Z,2.30
2022-09-22T14:55:39.733Z,3.20
2022-09-22T14:58:13.775Z,2.75
2022-09-22T15:01:10.730Z,3.28
2022-09-22T15:03:38.819Z,5.03
2022-09-22T15:06:07.665Z,7.00
2022-09-22T15:08:34.315Z,3.85
2022-09-22T15:11:01.433Z,2.45
2022-09-22T15:13:38.996Z,4.68
2022-09-22T15:16:06.994Z,4.13
2022-09-22T15:18:33.841Z,8.45
2022-09-22T15:21:15.729Z,3.28
2022-09-22T15:23:45.000Z,3.40
2022-09-22T15:26:22.888Z,2.60
2022-09-22T15:28:52.199Z,4.38
2022-09-22T15:31:35.065Z,2.08
2022-09-22T15:34:02.947Z,2.42
2022-09-22T15:36:32.656Z,1.70
2022-09-22T15:39:02.283Z,1.90
2022-09-22T15:41:28.952Z,2.47
2022-09-22T15:43:55.967Z,2.65
2022-09-22T15:46:28.512Z,4.18
2022-09-22T15:51:24.228Z,2.70
2022-09-22T15:53:51.639Z,4.50
2022-09-22T15:56:25.736Z,2.65
2022-09-22T15:58:52.457Z,3.60
2022-09-22T16:01:19.228Z,3.97
2022-09-22T16:03:45.893Z,3.38
2022-09-22T16:06:15.490Z,3.40
2022-09-22T16:08:51.509Z,2.90
2022-09-22T16:11:23.414Z,3.72
2022-09-22T16:13:50.096Z,4.13
2022-09-22T16:16:19.207Z,3.58
2022-09-22T16:18:45.974Z,3.22
2022-09-22T16:21:31.185Z,3.45
2022-09-22T16:24:02.901Z,5.55
2022-09-22T16:26:31.652Z,5.72
2022-09-22T16:28:58.485Z,4.20
2022-09-22T16:31:25.769Z,4.45
2022-09-22T16:33:54.072Z,4.90
2022-09-22T16:36:21.746Z,2.88
2022-09-22T16:38:48.826Z,4.25
2022-09-22T16:41:35.747Z,5.28
2022-09-22T16:44:02.685Z,2.13
2022-09-22T16:46:30.494Z,4.13
2022-09-22T16:49:05.246Z,7.43
2022-09-22T16:51:33.515Z,3.70
2022-09-22T16:54:00.383Z,2.60
2022-09-22T16:56:28.512Z,3.33
2022-09-22T16:58:55.557Z,3.40
2022-09-22T17:01:22.566Z,3.20
2022-09-22T17:03:49.978Z,6.00
2022-09-22T17:06:18.398Z,4.25
2022-09-22T17:08:45.902Z,4.78
2022-09-22T17:11:13.993Z,4.95
2022-09-22T17:13:43.217Z,4.38
2022-09-22T17:16:30.648Z,4.20
2022-09-22T17:18:59.804Z,6.05
2022-09-22T17:21:29.306Z,6.00
2022-09-22T17:24:00.641Z,5.72
2022-09-22T17:26:30.968Z,3.50
2022-09-22T17:28:59.558Z,5.72
2022-09-22T17:31:27.811Z,5.30
2022-09-22T17:33:55.030Z,4.97
2022-09-22T17:36:23.842Z,4.82
2022-09-22T17:38:51.983Z,3.58
2022-09-22T17:41:20.496Z,5.32
2022-09-22T17:43:48.449Z,5.25
2022-09-22T17:46:16.561Z,4.60
2022-09-22T17:49:03.546Z,6.07
2022-09-22T17:51:52.826Z,6.88
2022-09-22T17:55:00.613Z,5.10
2022-09-22T17:57:29.843Z,5.25
2022-09-22T17:59:56.741Z,5.82
2022-09-22T18:02:25.350Z,6.85
2022-09-22T18:04:52.139Z,4.40
2022-09-22T18:07:20.413Z,6.00
2022-09-22T18:09:48.131Z,9.50
2022-09-22T18:12:16.585Z,8.45
2022-09-22T18:14:45.977Z,7.18
2022-09-22T18:17:14.666Z,7.00
2022-09-22T18:19:42.062Z,7.53
2022-09-22T18:22:10.823Z,6.15
2022-09-22T18:24:37.775Z,8.27
2022-09-22T18:27:04.865Z,12.13
2022-09-22T18:29:32.202Z,7.07
2022-09-22T18:31:59.481Z,6.68
2022-09-22T18:34:27.900Z,6.53
2022-09-22T18:36:54.546Z,5.82
2022-09-22T18:39:21.138Z,4.70
2022-09-22T18:41:47.927Z,4.63
2022-09-22T18:44:15.151Z,5.50
2022-09-22T18:46:47.725Z,7.15
2022-09-22T18:49:14.949Z,5.03
2022-09-22T18:51:43.922Z,4.88
2022-09-22T18:54:15.301Z,4.53
2022-09-22T18:56:44.183Z,4.97
2022-09-22T18:59:12.463Z,5.03
2022-09-22T19:01:39.214Z,3.13
2022-09-22T19:04:07.953Z,3.85
2022-09-22T19:06:54.493Z,3.53
2022-09-22T19:09:21.401Z,4.18
2022-09-22T19:11:50.376Z,3.88
2022-09-22T19:14:17.658Z,3.95
2022-09-22T19:16:46.631Z,4.13
2022-09-22T19:19:13.256Z,4.03
2022-09-22T19:21:39.858Z,3.72
2022-09-22T19:24:11.043Z,4.07
2022-09-22T19:26:42.432Z,4.18
2022-09-22T19:29:09.624Z,4.82
2022-09-22T19:31:37.105Z,3.42
2022-09-22T19:34:03.865Z,3.65
2022-09-22T19:36:30.652Z,4.93
2022-09-22T19:38:57.399Z,5.72
2022-09-22T19:41:25.565Z,4.95
2022-09-22T19:43:52.849Z,4.80
2022-09-22T19:46:19.655Z,3.85
2022-09-22T19:48:46.408Z,3.95
2022-09-22T19:51:13.533Z,4.07
2022-09-22T19:53:40.221Z,3.92
2022-09-22T19:56:06.965Z,4.43
2022-09-22T19:58:34.036Z,5.30
2022-09-22T20:01:00.722Z,5.95
2022-09-22T20:03:27.359Z,5.28
2022-09-22T20:05:53.998Z,6.32
2022-09-22T20:08:22.667Z,5.97
2022-09-22T20:11:01.737Z,5.78
2022-09-22T20:13:57.637Z,5.75
2022-09-22T20:16:27.917Z,5.70
2022-09-22T20:18:55.024Z,6.57
2022-09-22T20:21:21.641Z,6.32
2022-09-22T20:23:48.562Z,6.28
2022-09-22T20:26:15.237Z,6.07
2022-09-22T20:28:41.850Z,5.57
2022-09-22T20:31:11.636Z,4.75
2022-09-22T20:33:38.486Z,6.72
2022-09-22T20:36:05.946Z,5.90
2022-09-22T20:38:33.755Z,5.78
2022-09-22T20:41:01.113Z,5.90
2022-09-22T20:43:28.718Z,5.82
2022-09-22T20:46:03.671Z,7.18
2022-09-22T20:48:31.348Z,8.30
2022-09-22T20:50:58.161Z,8.02
2022-09-22T20:53:24.989Z,6.97
2022-09-22T20:56:03.950Z,7.38
2022-09-22T20:58:32.266Z,6.88
2022-09-22T21:00:59.773Z,7.40
2022-09-22T21:03:26.608Z,6.50
2022-09-22T21:05:55.249Z,6.97
2022-09-22T21:08:41.838Z,5.38
2022-09-22T21:11:13.825Z,5.93
2022-09-22T21:13:51.845Z,7.22
2022-09-22T21:16:24.871Z,7.20
2022-09-22T21:18:51.859Z,6.80
2022-09-22T21:21:19.698Z,7.47
2022-09-22T21:23:46.716Z,7.20
2022-09-22T21:26:13.626Z,8.05
2022-09-22T21:28:40.720Z,7.75
2022-09-22T21:31:07.895Z,8.93
2022-09-22T21:33:35.132Z,7.25
2022-09-22T21:36:06.593Z,8.35
2022-09-22T21:38:33.873Z,8.70
2022-09-22T21:41:02.848Z,8.65
2022-09-22T21:43:29.594Z,8.13
2022-09-22T21:46:04.208Z,9.18
2022-09-22T21:48:32.330Z,8.60
2022-09-22T21:51:01.293Z,8.25
2022-09-22T21:53:28.381Z,6.78
2022-09-22T21:55:57.426Z,6.63
2022-09-22T21:58:24.054Z,7.97
2022-09-22T22:00:52.387Z,7.68
2022-09-22T22:03:34.181Z,8.23
2022-09-22T22:06:06.219Z,8.50
2022-09-22T22:08:37.794Z,7.20
2022-09-22T22:11:25.604Z,5.93
2022-09-22T22:13:59.683Z,6.70
2022-09-22T22:16:31.605Z,8.02
2022-09-22T22:18:58.380Z,7.68
2022-09-22T22:21:26.882Z,8.23
2022-09-22T22:23:55.437Z,7.03
2022-09-22T22:26:23.512Z,8.88
2022-09-22T22:28:50.499Z,7.75
2022-09-22T22:31:27.311Z,6.88
2022-09-22T22:33:54.102Z,8.98
2022-09-22T22:36:21.062Z,6.22
2022-09-22T22:38:47.871Z,9.23
2022-09-22T22:41:16.460Z,7.40
2022-09-22T22:43:43.575Z,6.07
2022-09-22T22:46:11.422Z,6.43
2022-09-22T22:48:38.188Z,6.60
2022-09-22T22:51:09.183Z,7.85
2022-09-22T22:53:35.996Z,6.82
2022-09-22T22:56:04.686Z,7.43
2022-09-22T22:58:32.846Z,8.10
2022-09-22T23:01:10.415Z,7.40
2022-09-22T23:03:41.219Z,7.32
2022-09-22T23:06:09.405Z,7.32
2022-09-22T23:08:36.215Z,7.70
2022-09-22T23:11:04.846Z,7.80
2022-09-22T23:13:32.170Z,7.50
2022-09-22T23:16:07.653Z,7.57
2022-09-22T23:18:35.662Z,7.03
2022-09-22T23:21:03.277Z,6.65
2022-09-22T23:23:29.948Z,6.95
2022-09-22T23:25:56.729Z,6.80
2022-09-22T23:28:23.659Z,6.95
2022-09-22T23:30:58.613Z,6.70
2022-09-22T23:33:26.483Z,7.93
2022-09-22T23:35:54.770Z,7.65
2022-09-22T23:38:21.529Z,6.50
2022-09-22T23:40:48.180Z,7.13
2022-09-22T23:43:14.927Z,6.97
2022-09-22T23:45:41.623Z,7.18
2022-09-22T23:48:08.303Z,6.78
2022-09-22T23:50:35.006Z,7.05
2022-09-22T23:53:01.947Z,7.57
2022-09-22T23:55:28.593Z,8.77
2022-09-22T23:57:55.165Z,10.10
